ADDS METAR Data INFO
IDs: Format: Raw Decoded Include TAF

Data at: 1325 UTC 19 Jul 2018

KGVL 191309Z AUTO 07008KT 10SM BKN009 24/21 A3005 RMK AO2 T02390211
KGVL 191253Z AUTO 07007KT 10SM SCT011 24/21 A3005 RMK AO2 SLP159 T02390206
KGVL 191153Z AUTO 07008G16KT 10SM FEW055 23/19 A3004 RMK AO2 SLP155 T02330194 10244 20222 53018
KGVL 191053Z AUTO 07006KT 10SM CLR 23/19 A3002 RMK AO2 SLP148 T02280194
KGVL 190953Z AUTO 09005KT 10SM FEW026 23/20 A3000 RMK AO2 SLP141 T02280200
KGVL 190853Z AUTO 05005KT 10SM CLR 23/21 A2999 RMK AO2 SLP136 T02280206 55004
KGVL 190753Z AUTO 05005KT 10SM CLR 23/21 A2998 RMK AO2 SLP135 T02330211
KGVL 190653Z AUTO 04004KT 10SM CLR 23/22 A2999 RMK AO2 SLP137 T02330222
KGVL 190553Z AUTO 05003KT 10SM CLR 24/22 A3000 RMK AO2 SLP141 60000 T02440222 10294 20244 58004
KGVL 190453Z AUTO 00000KT 10SM BKN037 BKN050 26/22 A3001 RMK AO2 SLP143 T02560222 403170217
KGVL 190353Z AUTO 00000KT 10SM SCT049 26/22 A3001 RMK AO2 RAE01 SLP143 P0000 T02560217
KGVL 190253Z AUTO 08003KT 10SM -RA BKN047 BKN060 OVC100 26/22 A3001 RMK AO2 RAB47 TSE00 SLP144 P0000 60000 T02610217 53013
KGVL 190206Z AUTO 00000KT 10SM BKN043 OVC050 27/21 A3000 RMK AO2 TSE00 T02670211
KGVL 190153Z AUTO 00000KT 10SM TS OVC044 27/21 A2999 RMK AO2 TSB45 SLP137 T02670206
KGVL 190151Z AUTO 00000KT 10SM TS OVC042 27/21 A2999 RMK AO2 TSB45
KGVL 190053Z AUTO 03007KT 10SM BKN044 BKN055 OVC100 27/21 A2997 RMK AO2 TSB20E42 SLP132 T02670211
KGVL 190048Z AUTO 03006KT 10SM BKN046 BKN060 27/21 A2997 RMK AO2 TSB20E42
KGVL 190026Z AUTO 09007KT 10SM TS FEW044 28/22 A2997 RMK AO2 TSB20 T02830222
KGVL 182353Z AUTO 14005KT 10SM SCT045 29/22 A2996 RMK AO2 SLP126 T02940222 10317 20294 55002
KGVL 182253Z AUTO 14005KT 10SM BKN047 31/22 A2994 RMK AO2 SLP121 T03060217
KGVL 182153Z AUTO 13006KT 10SM CLR 31/22 A2995 RMK AO2 LTG DSNT NE SLP123 T03060217
KGVL 182053Z AUTO 00000KT 10SM BKN044 31/21 A2996 RMK AO2 SLP128 T03110211 58020
KGVL 181953Z AUTO VRB03KT 10SM SCT042 30/22 A2998 RMK AO2 SLP134 T03000217
KGVL 181853Z AUTO 10005KT 10SM FEW041 31/22 A3000 RMK AO2 SLP142 T03060217
KGVL 181753Z AUTO 13005KT 10SM CLR 30/21 A3002 RMK AO2 SLP148 T03000211 10300 20239 58007
KGVL 181653Z AUTO 13005KT 10SM CLR 29/22 A3004 RMK AO2 SLP153 T02940217
KGVL 181553Z AUTO 10006KT 10SM CLR 28/21 A3004 RMK AO2 SLP156 T02780211
KGVL 181453Z AUTO VRB05KT 10SM CLR 28/21 A3004 RMK AO2 SLP155 T02780211 50006
KGVL 181353Z AUTO 07004KT 10SM CLR 27/21 A3004 RMK AO2 SLP155 T02720206
KGVL 181253Z AUTO 33003KT 10SM BKN100 24/22 A3004 RMK AO2 SLP156 T02440222
KGVL 181153Z AUTO 00000KT 10SM BKN100 24/23 A3003 RMK AO2 SLP150 T02390228 10239 20217 53018
KGVL 181053Z AUTO 34003KT 10SM CLR 23/22 A3000 RMK AO2 SLP141 T02280222
KGVL 180953Z AUTO 29003KT 10SM CLR 22/22 A2998 RMK AO2 SLP134 T02220222
KGVL 180853Z AUTO 27003KT 10SM CLR 22/22 A2997 RMK AO2 SLP131 T02170217 56012
KGVL 180753Z AUTO 30004KT 10SM CLR 23/23 A2998 RMK AO2 SLP133 T02280228
KGVL 180653Z AUTO 29004KT 10SM CLR 23/22 A2998 RMK AO2 SLP134 T02330222
KGVL 180553Z AUTO 27005KT 10SM CLR 24/22 A3001 RMK AO2 SLP142 T02390222 10283 20239 58004
KGVL 180453Z AUTO 30003KT 10SM CLR 24/22 A3002 RMK AO2 SLP148 T02440222 403280211
KGVL 180353Z AUTO 27005KT 10SM CLR 25/22 A3002 RMK AO2 SLP146 T02500222
KGVL 180253Z AUTO 26007KT 10SM CLR 25/22 A3002 RMK AO2 SLP148 T02500222 53006
KGVL 180153Z AUTO 27006KT 10SM SCT100 26/22 A3001 RMK AO2 SLP146 T02560222